createdAt,value
2022-10-01T00:02:12.499Z,100748.66
2022-10-01T00:04:40.759Z,100747.78
2022-10-01T00:07:15.352Z,100744.16
2022-10-01T00:09:45.092Z,100749.59
2022-10-01T00:12:15.999Z,100748.69
2022-10-01T00:14:45.183Z,100755.84
2022-10-01T00:17:13.270Z,100758.84
2022-10-01T00:19:41.440Z,100759.19
2022-10-01T00:22:09.580Z,100763.25
2022-10-01T00:24:37.838Z,100763.31
2022-10-01T00:27:07.362Z,100766.22
2022-10-01T00:29:35.763Z,100767.47
2022-10-01T00:32:03.962Z,100768.44
2022-10-01T00:34:32.098Z,100764.59
2022-10-01T00:37:00.274Z,100768.34
2022-10-01T00:39:28.576Z,100764.25
2022-10-01T00:41:56.741Z,100763.19
2022-10-01T00:44:36.962Z,100757.22
2022-10-01T00:47:14.204Z,100765.63
2022-10-01T00:49:44.244Z,100767.66
2022-10-01T00:52:16.185Z,100774.47
2022-10-01T00:54:47.985Z,100767.22
2022-10-01T00:57:19.985Z,100772.38
2022-10-01T00:59:50.956Z,100776.03
2022-10-01T01:02:19.147Z,100770.00
2022-10-01T01:04:48.352Z,100777.13
2022-10-01T01:07:17.329Z,100773.28
2022-10-01T01:09:48.567Z,100772.56
2022-10-01T01:12:27.716Z,100766.47
2022-10-01T01:15:13.003Z,100769.19
2022-10-01T01:17:49.419Z,100760.97
2022-10-01T01:21:07.753Z,100763.38
2022-10-01T01:23:58.756Z,100758.72
2022-10-01T01:26:38.849Z,100755.13
2022-10-01T01:29:12.403Z,100756.44
2022-10-01T01:31:46.313Z,100754.25
2022-10-01T01:34:18.539Z,100752.75
2022-10-01T01:36:54.441Z,100751.50
2022-10-01T01:39:25.088Z,100745.59
2022-10-01T01:41:59.575Z,100751.28
2022-10-01T01:44:34.482Z,100746.56
2022-10-01T01:47:05.309Z,100738.09
2022-10-01T01:49:34.167Z,100737.19
2022-10-01T01:52:09.339Z,100738.44
2022-10-01T01:54:38.343Z,100746.63
2022-10-01T01:57:07.682Z,100753.78
2022-10-01T01:59:37.772Z,100752.97
2022-10-01T02:02:07.853Z,100755.22
2022-10-01T02:04:43.025Z,100745.16
2022-10-01T02:07:52.349Z,100751.72
2022-10-01T02:10:35.444Z,100755.56
2022-10-01T02:13:16.195Z,100761.97
2022-10-01T02:15:56.627Z,100765.91
2022-10-01T02:18:31.125Z,100767.13
2022-10-01T02:21:11.224Z,100770.63
2022-10-01T02:23:46.667Z,100763.34
2022-10-01T02:26:19.615Z,100767.47
2022-10-01T02:28:50.378Z,100754.50
2022-10-01T02:31:21.609Z,100763.00
2022-10-01T02:33:52.155Z,100764.06
2022-10-01T02:36:23.018Z,100758.00
2022-10-01T02:38:52.416Z,100752.59
2022-10-01T02:41:25.251Z,100759.69
2022-10-01T02:43:58.413Z,100764.50
2022-10-01T02:46:33.509Z,100765.25
2022-10-01T02:49:04.471Z,100769.28
2022-10-01T02:51:39.371Z,100764.50
2022-10-01T02:54:14.969Z,100770.97
2022-10-01T02:57:00.792Z,100767.22
2022-10-01T02:59:28.997Z,100758.72
2022-10-01T03:01:58.781Z,100761.53
2022-10-01T03:04:27.252Z,100760.72
2022-10-01T03:06:55.334Z,100774.66
2022-10-01T03:09:23.769Z,100770.53
2022-10-01T03:11:52.136Z,100762.31
2022-10-01T03:14:21.171Z,100773.69
2022-10-01T03:16:49.224Z,100766.97
2022-10-01T03:19:19.259Z,100766.16
2022-10-01T03:21:47.502Z,100765.19
2022-10-01T03:24:16.197Z,100767.44
2022-10-01T03:26:45.287Z,100769.53
2022-10-01T03:29:13.447Z,100768.31
2022-10-01T03:31:41.653Z,100777.66
2022-10-01T03:34:10.337Z,100779.25
2022-10-01T03:36:40.250Z,100782.59
2022-10-01T03:39:08.578Z,100789.00
2022-10-01T03:41:37.177Z,100788.41
2022-10-01T03:44:06.025Z,100800.66
2022-10-01T03:46:34.708Z,100801.97
2022-10-01T03:49:03.004Z,100809.25
2022-10-01T03:51:32.316Z,100805.13
2022-10-01T03:54:02.155Z,100802.56
2022-10-01T03:56:30.402Z,100809.88
2022-10-01T03:58:58.564Z,100806.34
2022-10-01T04:01:27.197Z,100810.91
2022-10-01T04:03:55.816Z,100807.84
2022-10-01T04:06:24.037Z,100809.59
2022-10-01T04:08:52.370Z,100805.03
2022-10-01T04:11:22.386Z,100798.38
2022-10-01T04:13:50.460Z,100811.75
2022-10-01T04:16:18.860Z,100825.81
2022-10-01T04:18:47.022Z,100822.63
2022-10-01T04:21:15.698Z,100825.97
2022-10-01T04:23:43.954Z,100826.31
2022-10-01T04:26:12.131Z,100828.16
2022-10-01T04:28:41.666Z,100825.81
2022-10-01T04:31:27.975Z,100824.16
2022-10-01T04:33:58.290Z,100829.69
2022-10-01T04:36:26.888Z,100826.44
2022-10-01T04:39:01.684Z,100820.91
2022-10-01T04:41:31.171Z,100822.19
2022-10-01T04:44:01.234Z,100821.16
2022-10-01T04:46:30.916Z,100817.56
2022-10-01T04:48:59.311Z,100806.56
2022-10-01T04:51:27.573Z,100818.06
2022-10-01T04:53:55.688Z,100815.97
2022-10-01T04:56:23.802Z,100821.38
2022-10-01T04:58:51.934Z,100819.22
2022-10-01T05:01:21.757Z,100819.69
2022-10-01T05:03:49.893Z,100813.72
2022-10-01T05:06:17.971Z,100820.22
2022-10-01T05:08:46.090Z,100824.03
2022-10-01T05:11:14.188Z,100823.84
2022-10-01T05:13:42.503Z,100832.38
2022-10-01T05:16:11.949Z,100834.13
2022-10-01T05:18:41.484Z,100834.00
2022-10-01T05:21:11.561Z,100836.63
2022-10-01T05:23:40.275Z,100834.81
2022-10-01T05:26:09.096Z,100831.25
2022-10-01T05:28:43.119Z,100830.91
2022-10-01T05:31:12.174Z,100825.13
2022-10-01T05:33:42.338Z,100822.28
2022-10-01T05:36:10.666Z,100834.94
2022-10-01T05:38:39.004Z,100837.03
2022-10-01T05:41:07.985Z,100848.94
2022-10-01T05:43:36.359Z,100853.03
2022-10-01T05:46:06.139Z,100851.94
2022-10-01T05:48:37.030Z,100848.50
2022-10-01T05:51:08.592Z,100854.16
2022-10-01T05:53:37.856Z,100860.56
2022-10-01T05:56:06.397Z,100865.34
2022-10-01T05:58:35.344Z,100868.91
2022-10-01T06:01:04.248Z,100870.09
2022-10-01T06:03:32.432Z,100868.06
2022-10-01T06:06:00.886Z,100876.16
2022-10-01T06:08:30.651Z,100880.03
2022-10-01T06:11:02.644Z,100890.84
2022-10-01T06:13:32.137Z,100886.16
2022-10-01T06:16:00.304Z,100885.44
2022-10-01T06:18:28.720Z,100871.56
2022-10-01T06:20:59.331Z,100872.00
2022-10-01T06:23:27.432Z,100867.03
2022-10-01T06:25:56.951Z,100868.44
2022-10-01T06:28:25.095Z,100865.16
2022-10-01T06:30:53.308Z,100864.03
2022-10-01T06:33:21.680Z,100863.88
2022-10-01T06:35:51.331Z,100855.22
2022-10-01T06:38:21.441Z,100857.06
2022-10-01T06:40:53.710Z,100850.91
2022-10-01T06:43:23.830Z,100850.47
2022-10-01T06:45:52.241Z,100842.47
2022-10-01T06:48:22.620Z,100844.69
2022-10-01T06:50:52.328Z,100845.25
2022-10-01T06:53:20.583Z,100843.72
2022-10-01T06:55:50.016Z,100847.69
2022-10-01T06:58:19.390Z,100846.59
2022-10-01T07:00:49.855Z,100849.34
2022-10-01T07:03:20.880Z,100836.78
2022-10-01T07:05:51.009Z,100844.63
2022-10-01T07:08:19.098Z,100847.38
2022-10-01T07:10:47.169Z,100848.53
2022-10-01T07:13:16.740Z,100841.50
2022-10-01T07:15:45.532Z,100853.25
2022-10-01T07:18:15.652Z,100856.00
2022-10-01T07:20:43.777Z,100852.44
2022-10-01T07:23:13.887Z,100850.88
2022-10-01T07:25:43.210Z,100846.94
2022-10-01T07:28:18.436Z,100852.44
2022-10-01T07:30:59.428Z,100862.66
2022-10-01T07:33:29.234Z,100863.84
2022-10-01T07:35:57.302Z,100858.72
2022-10-01T07:38:25.456Z,100861.81
2022-10-01T07:40:54.979Z,100861.00
2022-10-01T07:43:23.495Z,100862.22
2022-10-01T07:45:52.655Z,100865.34
2022-10-01T07:48:21.134Z,100864.16
2022-10-01T07:50:50.713Z,100863.75
2022-10-01T07:53:20.708Z,100871.97
2022-10-01T07:55:49.128Z,100876.72
2022-10-01T07:58:17.960Z,100872.78
2022-10-01T08:00:46.217Z,100872.06
2022-10-01T08:03:14.351Z,100872.88
2022-10-01T08:05:43.731Z,100869.31
2022-10-01T08:08:13.277Z,100880.66
2022-10-01T08:10:41.437Z,100879.47
2022-10-01T08:13:14.538Z,100865.72
2022-10-01T08:15:43.618Z,100866.47
2022-10-01T08:18:13.276Z,100861.78
2022-10-01T08:20:41.433Z,100843.75
2022-10-01T08:23:11.776Z,100846.81
2022-10-01T08:25:41.829Z,100843.56
2022-10-01T08:28:11.631Z,100837.31
2022-10-01T08:30:42.619Z,100841.91
2022-10-01T08:33:12.810Z,100841.63
2022-10-01T08:35:41.882Z,100837.22
2022-10-01T08:38:11.089Z,100836.06
2022-10-01T08:40:47.620Z,100842.81
2022-10-01T08:43:29.123Z,100837.34
2022-10-01T08:46:01.232Z,100830.66
2022-10-01T08:48:40.174Z,100813.75
2022-10-01T08:51:12.703Z,100819.34
2022-10-01T08:53:46.762Z,100824.84
2022-10-01T08:56:23.002Z,100821.63
2022-10-01T08:58:58.357Z,100824.25
2022-10-01T09:01:26.848Z,100831.78
2022-10-01T09:03:55.882Z,100838.13
2022-10-01T09:06:26.434Z,100835.03
2022-10-01T09:09:10.612Z,100828.81
2022-10-01T09:11:59.700Z,100828.31
2022-10-01T09:14:50.580Z,100813.00
2022-10-01T09:17:30.402Z,100811.84
2022-10-01T09:20:11.976Z,100810.19
2022-10-01T09:22:42.317Z,100814.53
2022-10-01T09:25:18.303Z,100812.13
2022-10-01T09:27:48.247Z,100815.25
2022-10-01T09:30:20.116Z,100813.69
2022-10-01T09:32:55.496Z,100805.84
2022-10-01T09:35:36.470Z,100805.50
2022-10-01T09:38:12.912Z,100790.84
2022-10-01T09:40:47.378Z,100794.84
2022-10-01T09:43:19.960Z,100789.31
2022-10-01T09:45:48.376Z,100796.06
2022-10-01T09:48:23.372Z,100802.44
2022-10-01T09:50:56.260Z,100814.22
2022-10-01T09:53:29.080Z,100817.81
2022-10-01T09:56:01.625Z,100810.78
2022-10-01T09:58:32.176Z,100814.72
2022-10-01T10:01:01.589Z,100810.88
2022-10-01T10:03:32.814Z,100801.50
2022-10-01T10:06:02.318Z,100814.88
2022-10-01T10:08:35.100Z,100806.66
2022-10-01T10:11:06.485Z,100807.03
2022-10-01T10:13:41.686Z,100806.25
2022-10-01T10:16:17.457Z,100798.03
2022-10-01T10:18:52.315Z,100807.84
2022-10-01T10:21:25.515Z,100796.50
2022-10-01T10:23:56.127Z,100789.41
2022-10-01T10:26:32.491Z,100791.81
2022-10-01T10:29:03.381Z,100783.59
2022-10-01T10:31:41.557Z,100777.31
2022-10-01T10:34:16.580Z,100766.72
2022-10-01T10:36:46.804Z,100769.47
2022-10-01T10:39:21.581Z,100762.81
2022-10-01T10:41:52.813Z,100773.38
2022-10-01T10:44:25.267Z,100766.69
2022-10-01T10:46:55.578Z,100769.09
2022-10-01T10:49:26.364Z,100765.94
2022-10-01T10:51:56.500Z,100760.88
2022-10-01T10:54:30.185Z,100755.75
2022-10-01T10:57:02.581Z,100755.34
2022-10-01T10:59:34.778Z,100749.09
2022-10-01T11:02:07.296Z,100740.91
2022-10-01T11:04:42.410Z,100740.13
2022-10-01T11:07:13.502Z,100730.31
2022-10-01T11:10:01.709Z,100731.13
2022-10-01T11:12:46.040Z,100713.47
2022-10-01T11:15:30.100Z,100701.75
2022-10-01T11:18:12.991Z,100692.75
2022-10-01T11:20:53.948Z,100690.78
2022-10-01T11:24:00.783Z,100680.97
2022-10-01T11:26:38.501Z,100670.44
2022-10-01T11:29:20.910Z,100660.97
2022-10-01T11:32:02.945Z,100656.66
2022-10-01T11:34:50.697Z,100662.56
2022-10-01T11:37:32.741Z,100656.66
2022-10-01T11:40:09.777Z,100647.25
2022-10-01T11:42:38.619Z,100647.25
2022-10-01T11:45:16.359Z,100648.06
2022-10-01T11:47:52.737Z,100639.06
2022-10-01T11:50:25.347Z,100628.53
2022-10-01T11:52:57.917Z,100610.56
2022-10-01T11:55:47.061Z,100600.31
2022-10-01T11:58:39.894Z,100594.88
2022-10-01T12:01:15.203Z,100604.69
2022-10-01T12:03:57.009Z,100633.28
2022-10-01T12:06:33.790Z,100645.00
2022-10-01T12:09:09.150Z,100653.22
2022-10-01T12:11:42.552Z,100648.53
2022-10-01T12:14:14.681Z,100643.09
2022-10-01T12:16:48.548Z,100627.06
2022-10-01T12:19:25.142Z,100629.44
2022-10-01T12:21:57.783Z,100641.59
2022-10-01T12:24:31.391Z,100650.56
2022-10-01T12:27:13.350Z,100643.91
2022-10-01T12:29:48.817Z,100633.75
2022-10-01T12:32:26.056Z,100623.56
2022-10-01T12:35:06.710Z,100625.13
2022-10-01T12:37:46.775Z,100624.72
2022-10-01T12:40:26.614Z,100623.94
2022-10-01T12:43:18.088Z,100609.91
2022-10-01T12:45:53.358Z,100607.56
2022-10-01T12:48:28.736Z,100604.81
2022-10-01T12:51:21.040Z,100595.81
2022-10-01T12:54:02.721Z,100600.13
2022-10-01T12:56:38.251Z,100604.41
2022-10-01T12:59:25.880Z,100599.72
2022-10-01T13:02:07.631Z,100594.25
2022-10-01T13:04:57.757Z,100591.44
2022-10-01T13:07:56.622Z,100590.66
2022-10-01T13:10:37.105Z,100583.66
2022-10-01T13:13:11.211Z,100591.84
2022-10-01T13:15:42.562Z,100580.56
2022-10-01T13:18:22.429Z,100580.19
2022-10-01T13:20:57.036Z,100575.50
2022-10-01T13:23:33.242Z,100573.16
2022-10-01T13:26:09.253Z,100567.25
2022-10-01T13:28:54.730Z,100566.88
2022-10-01T13:31:35.191Z,100554.34
2022-10-01T13:34:03.615Z,100555.94
2022-10-01T13:36:33.381Z,100548.91
2022-10-01T13:39:03.393Z,100555.56
2022-10-01T13:41:33.277Z,100556.34
2022-10-01T13:44:16.349Z,100551.63
2022-10-01T13:46:52.772Z,100550.88
2022-10-01T13:49:25.453Z,100546.56
2022-10-01T13:51:54.852Z,100529.31
2022-10-01T13:54:29.009Z,100526.19
2022-10-01T13:57:08.092Z,100532.47
2022-10-01T13:59:37.816Z,100545.72
2022-10-01T14:02:28.907Z,100535.94
2022-10-01T14:04:59.319Z,100526.19
2022-10-01T14:07:33.960Z,100530.88
2022-10-01T14:10:04.396Z,100528.16
2022-10-01T14:12:51.937Z,100532.13
2022-10-01T14:15:52.473Z,100538.38
2022-10-01T14:18:23.477Z,100529.38
2022-10-01T14:21:00.733Z,100533.28
2022-10-01T14:23:35.935Z,100519.97
2022-10-01T14:26:14.203Z,100532.84
2022-10-01T14:29:05.031Z,100513.72
2022-10-01T14:31:50.133Z,100518.41
2022-10-01T14:34:36.665Z,100517.63
2022-10-01T14:37:08.591Z,100509.03
2022-10-01T14:39:36.678Z,100502.75
2022-10-01T14:42:17.007Z,100504.72
2022-10-01T14:44:47.461Z,100500.00
2022-10-01T14:47:20.943Z,100477.31
2022-10-01T14:49:49.931Z,100467.53
2022-10-01T14:52:22.730Z,100467.88
2022-10-01T14:55:00.094Z,100465.50
2022-10-01T14:57:33.581Z,100446.28
2022-10-01T15:00:07.873Z,100443.53
2022-10-01T15:02:36.100Z,100453.97
2022-10-01T15:05:21.547Z,100459.69
2022-10-01T15:07:49.754Z,100458.44
2022-10-01T15:10:19.946Z,100452.56
2022-10-01T15:12:52.691Z,100442.78
2022-10-01T15:15:23.016Z,100438.88
2022-10-01T15:17:51.797Z,100435.75
2022-10-01T15:20:20.142Z,100424.81
2022-10-01T15:22:59.020Z,100427.56
2022-10-01T15:25:32.684Z,100418.94
2022-10-01T15:28:02.587Z,100418.56
2022-10-01T15:30:32.096Z,100404.94
2022-10-01T15:33:00.384Z,100393.97
2022-10-01T15:35:29.235Z,100398.97
2022-10-01T15:38:00.586Z,100393.91
2022-10-01T15:40:34.819Z,100398.16
2022-10-01T15:43:24.374Z,100403.28
2022-10-01T15:46:16.636Z,100390.97
2022-10-01T15:48:45.705Z,100392.44
2022-10-01T15:51:23.521Z,100385.53
2022-10-01T15:53:52.607Z,100363.72
2022-10-01T15:56:23.841Z,100365.53
2022-10-01T15:58:56.708Z,100370.13
2022-10-01T16:01:28.165Z,100353.34
2022-10-01T16:04:02.693Z,100355.66
2022-10-01T16:06:36.483Z,100350.59
2022-10-01T16:09:13.167Z,100336.56
2022-10-01T16:11:53.439Z,100330.25
2022-10-01T16:14:32.405Z,100335.28
2022-10-01T16:17:28.240Z,100357.06
2022-10-01T16:19:58.084Z,100349.22
2022-10-01T16:22:29.279Z,100335.97
2022-10-01T16:24:59.097Z,100323.41
2022-10-01T16:27:29.831Z,100325.00
2022-10-01T16:30:05.382Z,100303.97
2022-10-01T16:32:35.054Z,100315.97
2022-10-01T16:35:18.243Z,100314.78
2022-10-01T16:37:50.341Z,100314.47
2022-10-01T16:40:19.544Z,100318.69
2022-10-01T16:42:49.517Z,100320.19
2022-10-01T16:45:22.654Z,100307.34
2022-10-01T16:47:50.924Z,100299.50
2022-10-01T16:50:21.178Z,100297.06
2022-10-01T16:52:49.504Z,100296.22
2022-10-01T16:55:22.624Z,100293.06
2022-10-01T16:57:51.176Z,100295.78
2022-10-01T17:00:22.512Z,100298.47
2022-10-01T17:02:50.652Z,100292.56
2022-10-01T17:05:22.497Z,100295.91
2022-10-01T17:07:50.935Z,100290.75
2022-10-01T17:10:20.789Z,100289.28
2022-10-01T17:12:49.198Z,100284.69
2022-10-01T17:15:19.142Z,100289.72
2022-10-01T17:17:48.870Z,100278.47
2022-10-01T17:20:17.832Z,100269.97
2022-10-01T17:22:46.227Z,100273.88
2022-10-01T17:25:17.206Z,100272.97
2022-10-01T17:27:45.461Z,100260.50
2022-10-01T17:30:14.132Z,100258.84
2022-10-01T17:32:43.117Z,100264.38
2022-10-01T17:35:14.313Z,100261.97
2022-10-01T17:37:43.036Z,100266.25
2022-10-01T17:40:12.542Z,100255.69
2022-10-01T17:42:40.711Z,100251.97
2022-10-01T17:45:11.320Z,100242.78
2022-10-01T17:47:44.235Z,100242.00
2022-10-01T17:50:14.379Z,100228.81
2022-10-01T17:52:42.932Z,100226.81
2022-10-01T17:55:12.761Z,100225.63
2022-10-01T17:57:40.969Z,100226.38
2022-10-01T18:00:10.200Z,100213.63
2022-10-01T18:02:42.213Z,100203.03
2022-10-01T18:05:12.522Z,100196.34
2022-10-01T18:07:42.596Z,100191.38
2022-10-01T18:10:13.777Z,100199.63
2022-10-01T18:12:42.489Z,100190.19
2022-10-01T18:15:12.741Z,100187.31
2022-10-01T18:17:43.425Z,100184.88
2022-10-01T18:20:14.772Z,100189.34
2022-10-01T18:22:44.366Z,100186.41
2022-10-01T18:25:14.020Z,100182.09
2022-10-01T18:27:42.375Z,100185.94
2022-10-01T18:30:11.279Z,100176.25
2022-10-01T18:32:43.768Z,100178.97
2022-10-01T18:35:20.799Z,100173.09
2022-10-01T18:37:53.498Z,100171.06
2022-10-01T18:40:24.703Z,100158.63
2022-10-01T18:42:59.038Z,100156.03
2022-10-01T18:45:46.596Z,100161.06
2022-10-01T18:48:41.368Z,100159.56
2022-10-01T18:51:19.928Z,100142.63
2022-10-01T18:54:18.034Z,100132.91
2022-10-01T18:56:55.726Z,100125.81
2022-10-01T18:59:55.500Z,100111.91
2022-10-01T19:02:49.457Z,100104.25
2022-10-01T19:05:54.895Z,100104.19
2022-10-01T19:08:38.710Z,100111.50
2022-10-01T19:11:18.205Z,100104.50
2022-10-01T19:13:55.312Z,100092.84
2022-10-01T19:16:40.602Z,100083.94
2022-10-01T19:19:25.012Z,100086.34
2022-10-01T19:22:00.744Z,100075.78
2022-10-01T19:24:48.531Z,100069.59
2022-10-01T19:27:42.475Z,100064.91
2022-10-01T19:30:13.495Z,100055.66
2022-10-01T19:32:45.590Z,100050.75
2022-10-01T19:35:19.966Z,100039.56
2022-10-01T19:37:52.717Z,100022.03
2022-10-01T19:40:27.918Z,100015.34
2022-10-01T19:43:07.586Z,100008.22
2022-10-01T19:45:45.692Z,100010.31
2022-10-01T19:48:20.941Z,100019.22
2022-10-01T19:50:56.897Z,100010.75
2022-10-01T19:53:30.465Z,100006.06
2022-10-01T19:56:00.710Z,100000.19
2022-10-01T19:58:32.346Z,100005.97
2022-10-01T20:01:03.291Z,99991.56
2022-10-01T20:03:39.291Z,99987.63
2022-10-01T20:06:14.861Z,99986.41
2022-10-01T20:08:47.533Z,99982.19
2022-10-01T20:11:22.679Z,99974.91
2022-10-01T20:14:05.554Z,99980.41
2022-10-01T20:16:40.944Z,99977.34
2022-10-01T20:19:17.974Z,99977.75
2022-10-01T20:21:52.403Z,99977.81
2022-10-01T20:24:34.446Z,99972.47
2022-10-01T20:27:16.770Z,99968.31
2022-10-01T20:29:50.389Z,99968.44
2022-10-01T20:32:25.871Z,99961.53
2022-10-01T20:35:07.319Z,99961.78
2022-10-01T20:37:52.471Z,99970.63
2022-10-01T20:40:26.085Z,99963.94
2022-10-01T20:42:58.941Z,99961.59
2022-10-01T20:45:31.428Z,99968.31
2022-10-01T20:48:04.156Z,99963.44
2022-10-01T20:50:35.427Z,99956.63
2022-10-01T20:53:16.438Z,99962.16
2022-10-01T20:55:49.134Z,99947.47
2022-10-01T20:58:23.802Z,99934.72
2022-10-01T21:00:59.685Z,99940.22
2022-10-01T21:03:32.212Z,99932.06
2022-10-01T21:06:06.271Z,99928.56
2022-10-01T21:08:42.601Z,99925.84
2022-10-01T21:11:16.050Z,99913.47
2022-10-01T21:13:55.181Z,99916.22
2022-10-01T21:16:44.818Z,99899.56
2022-10-01T21:19:28.406Z,99900.75
2022-10-01T21:22:05.835Z,99898.81
2022-10-01T21:24:49.308Z,99891.00
2022-10-01T21:27:35.061Z,99886.22
2022-10-01T21:30:12.624Z,99879.03
2022-10-01T21:33:01.926Z,99882.00
2022-10-01T21:35:37.692Z,99886.22
2022-10-01T21:38:12.901Z,99880.81
2022-10-01T21:40:55.307Z,99882.91
2022-10-01T21:43:46.390Z,99880.94
2022-10-01T21:46:24.876Z,99880.44
2022-10-01T21:49:00.943Z,99881.94
2022-10-01T21:51:46.313Z,99879.47
2022-10-01T21:54:52.067Z,99884.03
2022-10-01T21:57:38.531Z,99889.81
2022-10-01T22:00:18.319Z,99876.25
2022-10-01T22:03:12.459Z,99874.72
2022-10-01T22:05:50.083Z,99862.69
2022-10-01T22:08:47.484Z,99862.69
2022-10-01T22:11:20.163Z,99853.78
2022-10-01T22:13:53.842Z,99849.97
2022-10-01T22:16:26.368Z,99835.38
2022-10-01T22:18:58.299Z,99843.13
2022-10-01T22:21:34.834Z,99840.81
2022-10-01T22:24:08.832Z,99843.22
2022-10-01T22:26:43.403Z,99833.97
2022-10-01T22:29:19.913Z,99840.59
2022-10-01T22:31:50.241Z,99833.59
2022-10-01T22:34:23.053Z,99829.34
2022-10-01T22:37:00.274Z,99820.09
2022-10-01T22:39:31.907Z,99811.59
2022-10-01T22:42:06.423Z,99811.22
2022-10-01T22:44:34.803Z,99804.69
2022-10-01T22:47:15.247Z,99796.91
2022-10-01T22:50:02.935Z,99800.81
2022-10-01T22:52:41.217Z,99790.31
2022-10-01T22:55:20.075Z,99789.53
2022-10-01T22:58:01.697Z,99773.75
2022-10-01T23:00:30.142Z,99766.75
2022-10-01T23:03:08.444Z,99762.09
2022-10-01T23:05:49.734Z,99765.97
2022-10-01T23:08:28.235Z,99765.91
2022-10-01T23:11:07.784Z,99774.41
2022-10-01T23:13:44.741Z,99778.63
2022-10-01T23:16:21.824Z,99765.78
2022-10-01T23:19:00.795Z,99758.03
2022-10-01T23:21:39.278Z,99747.13
2022-10-01T23:24:26.226Z,99746.31
2022-10-01T23:27:08.354Z,99730.69
2022-10-01T23:30:08.057Z,99737.75
2022-10-01T23:33:04.530Z,99735.81
2022-10-01T23:35:43.021Z,99751.25
2022-10-01T23:38:30.020Z,99766.34
2022-10-01T23:41:06.258Z,99788.97
2022-10-01T23:43:39.048Z,99820.50
2022-10-01T23:46:12.669Z,99834.69
2022-10-01T23:48:47.580Z,99838.75
2022-10-01T23:51:21.635Z,99789.88
2022-10-01T23:53:56.486Z,99765.84
2022-10-01T23:56:47.868Z,99780.50
2022-10-01T23:59:24.065Z,99775.09
